sensor_id;sensor_type;location;lat;lon;timestamp;P1;durP1;ratioP1;P2;durP2;ratioP2
45676;SDS011;31390;51.186;6.830;2022-08-05T00:01:25;6.93;;;6.15;;
45676;SDS011;31390;51.186;6.830;2022-08-05T00:03:53;10.38;;;6.15;;
45676;SDS011;31390;51.186;6.830;2022-08-05T00:06:22;10.40;;;6.53;;
45676;SDS011;31390;51.186;6.830;2022-08-05T00:08:58;11.63;;;6.78;;
45676;SDS011;31390;51.186;6.830;2022-08-05T00:11:26;18.70;;;7.70;;
45676;SDS011;31390;51.186;6.830;2022-08-05T00:14:00;9.88;;;7.13;;
45676;SDS011;31390;51.186;6.830;2022-08-05T00:16:37;12.30;;;7.03;;
45676;SDS011;31390;51.186;6.830;2022-08-05T00:19:19;7.43;;;5.53;;
45676;SDS011;31390;51.186;6.830;2022-08-05T00:21:47;7.93;;;6.13;;
45676;SDS011;31390;51.186;6.830;2022-08-05T00:24:14;17.77;;;7.55;;
45676;SDS011;31390;51.186;6.830;2022-08-05T00:26:44;9.25;;;6.68;;
45676;SDS011;31390;51.186;6.830;2022-08-05T00:29:17;9.85;;;6.10;;
45676;SDS011;31390;51.186;6.830;2022-08-05T00:31:48;9.77;;;6.43;;
45676;SDS011;31390;51.186;6.830;2022-08-05T00:34:34;8.65;;;6.28;;
45676;SDS011;31390;51.186;6.830;2022-08-05T00:37:22;8.63;;;5.07;;
45676;SDS011;31390;51.186;6.830;2022-08-05T00:39:49;9.90;;;6.40;;
45676;SDS011;31390;51.186;6.830;2022-08-05T00:42:34;9.70;;;6.18;;
45676;SDS011;31390;51.186;6.830;2022-08-05T00:45:03;7.90;;;5.13;;
45676;SDS011;31390;51.186;6.830;2022-08-05T00:47:34;13.07;;;6.97;;
45676;SDS011;31390;51.186;6.830;2022-08-05T00:50:20;14.20;;;7.90;;
45676;SDS011;31390;51.186;6.830;2022-08-05T00:52:50;10.85;;;7.75;;
45676;SDS011;31390;51.186;6.830;2022-08-05T00:55:18;9.88;;;6.32;;
45676;SDS011;31390;51.186;6.830;2022-08-05T00:57:45;11.05;;;7.05;;
45676;SDS011;31390;51.186;6.830;2022-08-05T01:00:28;5.68;;;5.13;;
45676;SDS011;31390;51.186;6.830;2022-08-05T01:02:55;9.73;;;5.93;;
45676;SDS011;31390;51.186;6.830;2022-08-05T01:05:22;8.13;;;6.43;;
45676;SDS011;31390;51.186;6.830;2022-08-05T01:07:50;12.68;;;8.15;;
45676;SDS011;31390;51.186;6.830;2022-08-05T01:11:21;12.35;;;6.47;;
45676;SDS011;31390;51.186;6.830;2022-08-05T01:16:29;8.00;;;6.88;;
45676;SDS011;31390;51.186;6.830;2022-08-05T01:19:02;11.13;;;6.57;;
45676;SDS011;31390;51.186;6.830;2022-08-05T01:26:55;13.13;;;6.88;;
45676;SDS011;31390;51.186;6.830;2022-08-05T01:29:29;9.57;;;7.03;;
45676;SDS011;31390;51.186;6.830;2022-08-05T01:32:01;16.23;;;8.88;;
45676;SDS011;31390;51.186;6.830;2022-08-05T01:39:50;9.00;;;8.13;;
45676;SDS011;31390;51.186;6.830;2022-08-05T01:42:24;17.83;;;11.63;;
45676;SDS011;31390;51.186;6.830;2022-08-05T01:44:52;20.75;;;12.10;;
45676;SDS011;31390;51.186;6.830;2022-08-05T01:47:21;18.80;;;12.23;;
45676;SDS011;31390;51.186;6.830;2022-08-05T01:50:06;19.77;;;13.23;;
45676;SDS011;31390;51.186;6.830;2022-08-05T01:52:40;21.25;;;13.70;;
45676;SDS011;31390;51.186;6.830;2022-08-05T01:55:09;17.98;;;11.70;;
45676;SDS011;31390;51.186;6.830;2022-08-05T01:57:39;19.17;;;13.63;;
45676;SDS011;31390;51.186;6.830;2022-08-05T02:00:26;14.75;;;10.85;;
45676;SDS011;31390;51.186;6.830;2022-08-05T02:03:01;16.67;;;11.75;;
45676;SDS011;31390;51.186;6.830;2022-08-05T02:05:31;10.30;;;9.20;;
45676;SDS011;31390;51.186;6.830;2022-08-05T02:08:01;18.40;;;11.35;;
45676;SDS011;31390;51.186;6.830;2022-08-05T02:10:30;19.27;;;12.10;;
45676;SDS011;31390;51.186;6.830;2022-08-05T02:13:11;14.27;;;10.95;;
45676;SDS011;31390;51.186;6.830;2022-08-05T02:16:26;17.65;;;10.93;;
45676;SDS011;31390;51.186;6.830;2022-08-05T02:18:36;15.82;;;12.80;;
45676;SDS011;31390;51.186;6.830;2022-08-05T02:21:12;16.02;;;12.63;;
45676;SDS011;31390;51.186;6.830;2022-08-05T02:23:41;15.57;;;13.27;;
45676;SDS011;31390;51.186;6.830;2022-08-05T02:26:11;15.38;;;13.25;;
45676;SDS011;31390;51.186;6.830;2022-08-05T02:28:42;24.17;;;17.05;;
45676;SDS011;31390;51.186;6.830;2022-08-05T02:31:13;20.13;;;16.33;;
45676;SDS011;31390;51.186;6.830;2022-08-05T02:34:27;16.27;;;14.57;;
45676;SDS011;31390;51.186;6.830;2022-08-05T02:36:28;29.70;;;21.55;;
45676;SDS011;31390;51.186;6.830;2022-08-05T02:38:56;20.30;;;18.10;;
45676;SDS011;31390;51.186;6.830;2022-08-05T02:41:24;24.75;;;19.23;;
45676;SDS011;31390;51.186;6.830;2022-08-05T02:44:02;21.30;;;17.33;;
45676;SDS011;31390;51.186;6.830;2022-08-05T02:46:39;23.98;;;19.23;;
45676;SDS011;31390;51.186;6.830;2022-08-05T02:49:28;20.30;;;18.15;;
45676;SDS011;31390;51.186;6.830;2022-08-05T02:52:02;21.45;;;17.92;;
45676;SDS011;31390;51.186;6.830;2022-08-05T02:54:30;22.85;;;18.98;;
45676;SDS011;31390;51.186;6.830;2022-08-05T02:57:03;29.35;;;23.50;;
45676;SDS011;31390;51.186;6.830;2022-08-05T02:59:35;31.67;;;24.73;;
45676;SDS011;31390;51.186;6.830;2022-08-05T03:02:18;80.60;;;37.08;;
45676;SDS011;31390;51.186;6.830;2022-08-05T03:04:46;114.45;;;46.13;;
45676;SDS011;31390;51.186;6.830;2022-08-05T03:07:18;95.03;;;42.58;;
45676;SDS011;31390;51.186;6.830;2022-08-05T03:10:05;65.53;;;39.22;;
45676;SDS011;31390;51.186;6.830;2022-08-05T03:12:32;123.15;;;49.80;;
45676;SDS011;31390;51.186;6.830;2022-08-05T03:14:59;147.77;;;59.35;;
45676;SDS011;31390;51.186;6.830;2022-08-05T03:17:27;207.63;;;68.80;;
45676;SDS011;31390;51.186;6.830;2022-08-05T03:19:53;67.45;;;40.28;;
45676;SDS011;31390;51.186;6.830;2022-08-05T03:22:24;75.70;;;40.40;;
45676;SDS011;31390;51.186;6.830;2022-08-05T03:24:57;49.78;;;33.97;;
45676;SDS011;31390;51.186;6.830;2022-08-05T03:27:44;116.00;;;48.47;;
45676;SDS011;31390;51.186;6.830;2022-08-05T03:30:26;28.05;;;24.48;;
45676;SDS011;31390;51.186;6.830;2022-08-05T03:32:59;41.33;;;28.80;;
45676;SDS011;31390;51.186;6.830;2022-08-05T03:35:27;31.83;;;23.88;;
45676;SDS011;31390;51.186;6.830;2022-08-05T03:37:58;25.17;;;20.65;;
45676;SDS011;31390;51.186;6.830;2022-08-05T03:40:25;71.85;;;33.38;;
45676;SDS011;31390;51.186;6.830;2022-08-05T03:42:58;25.77;;;20.60;;
45676;SDS011;31390;51.186;6.830;2022-08-05T03:45:45;25.38;;;22.67;;
45676;SDS011;31390;51.186;6.830;2022-08-05T03:48:23;27.58;;;22.67;;
45676;SDS011;31390;51.186;6.830;2022-08-05T03:56:54;50.33;;;29.02;;
45676;SDS011;31390;51.186;6.830;2022-08-05T03:59:33;36.10;;;25.05;;
45676;SDS011;31390;51.186;6.830;2022-08-05T04:02:13;45.60;;;27.00;;
45676;SDS011;31390;51.186;6.830;2022-08-05T04:05:00;58.13;;;33.33;;
45676;SDS011;31390;51.186;6.830;2022-08-05T04:07:28;57.17;;;31.60;;
45676;SDS011;31390;51.186;6.830;2022-08-05T04:09:58;29.98;;;23.35;;
45676;SDS011;31390;51.186;6.830;2022-08-05T04:12:28;68.07;;;33.88;;
45676;SDS011;31390;51.186;6.830;2022-08-05T04:14:56;58.83;;;34.05;;
45676;SDS011;31390;51.186;6.830;2022-08-05T04:17:24;133.45;;;47.20;;
45676;SDS011;31390;51.186;6.830;2022-08-05T04:20:18;35.42;;;26.88;;
45676;SDS011;31390;51.186;6.830;2022-08-05T04:22:45;83.22;;;36.85;;
45676;SDS011;31390;51.186;6.830;2022-08-05T04:25:14;29.75;;;24.42;;
45676;SDS011;31390;51.186;6.830;2022-08-05T04:27:40;83.60;;;40.75;;
45676;SDS011;31390;51.186;6.830;2022-08-05T04:30:23;68.10;;;36.10;;
45676;SDS011;31390;51.186;6.830;2022-08-05T04:32:51;131.02;;;47.47;;
45676;SDS011;31390;51.186;6.830;2022-08-05T04:35:18;42.03;;;27.83;;
45676;SDS011;31390;51.186;6.830;2022-08-05T04:37:45;44.95;;;28.40;;
45676;SDS011;31390;51.186;6.830;2022-08-05T04:40:28;26.13;;;21.73;;
45676;SDS011;31390;51.186;6.830;2022-08-05T04:42:54;100.13;;;41.55;;
45676;SDS011;31390;51.186;6.830;2022-08-05T04:45:21;73.88;;;34.13;;
45676;SDS011;31390;51.186;6.830;2022-08-05T04:48:11;70.28;;;33.47;;
45676;SDS011;31390;51.186;6.830;2022-08-05T04:50:54;34.33;;;23.38;;
45676;SDS011;31390;51.186;6.830;2022-08-05T04:53:36;89.25;;;38.30;;
45676;SDS011;31390;51.186;6.830;2022-08-05T04:56:06;27.45;;;22.05;;
45676;SDS011;31390;51.186;6.830;2022-08-05T04:58:53;88.28;;;40.50;;
45676;SDS011;31390;51.186;6.830;2022-08-05T05:01:24;37.50;;;27.00;;
45676;SDS011;31390;51.186;6.830;2022-08-05T05:04:11;63.85;;;34.58;;
45676;SDS011;31390;51.186;6.830;2022-08-05T05:06:37;102.65;;;39.95;;
45676;SDS011;31390;51.186;6.830;2022-08-05T05:09:11;105.38;;;40.13;;
45676;SDS011;31390;51.186;6.830;2022-08-05T05:11:43;42.92;;;27.85;;
45676;SDS011;31390;51.186;6.830;2022-08-05T05:14:21;118.57;;;43.03;;
45676;SDS011;31390;51.186;6.830;2022-08-05T05:17:00;47.88;;;29.33;;
45676;SDS011;31390;51.186;6.830;2022-08-05T05:19:28;54.92;;;30.70;;
45676;SDS011;31390;51.186;6.830;2022-08-05T05:22:04;39.97;;;26.25;;
45676;SDS011;31390;51.186;6.830;2022-08-05T05:24:51;73.05;;;36.40;;
45676;SDS011;31390;51.186;6.830;2022-08-05T05:27:26;48.55;;;31.63;;
45676;SDS011;31390;51.186;6.830;2022-08-05T05:30:13;82.80;;;38.85;;
45676;SDS011;31390;51.186;6.830;2022-08-05T05:32:55;85.10;;;40.13;;
45676;SDS011;31390;51.186;6.830;2022-08-05T05:35:26;56.95;;;35.42;;
45676;SDS011;31390;51.186;6.830;2022-08-05T05:38:00;109.15;;;44.60;;
45676;SDS011;31390;51.186;6.830;2022-08-05T05:40:28;82.25;;;41.92;;
45676;SDS011;31390;51.186;6.830;2022-08-05T05:42:58;57.72;;;35.72;;
45676;SDS011;31390;51.186;6.830;2022-08-05T05:45:27;56.60;;;36.20;;
45676;SDS011;31390;51.186;6.830;2022-08-05T05:47:56;69.65;;;39.45;;
45676;SDS011;31390;51.186;6.830;2022-08-05T05:50:32;120.30;;;48.80;;
45676;SDS011;31390;51.186;6.830;2022-08-05T05:53:00;111.93;;;49.08;;
45676;SDS011;31390;51.186;6.830;2022-08-05T05:55:46;190.90;;;62.22;;
45676;SDS011;31390;51.186;6.830;2022-08-05T05:58:25;103.55;;;48.85;;
45676;SDS011;31390;51.186;6.830;2022-08-05T06:01:00;116.03;;;52.22;;
45676;SDS011;31390;51.186;6.830;2022-08-05T06:03:40;183.02;;;67.18;;
45676;SDS011;31390;51.186;6.830;2022-08-05T06:06:27;54.60;;;39.58;;
45676;SDS011;31390;51.186;6.830;2022-08-05T06:09:00;184.40;;;67.47;;
45676;SDS011;31390;51.186;6.830;2022-08-05T06:11:29;80.75;;;48.00;;
45676;SDS011;31390;51.186;6.830;2022-08-05T06:13:56;111.82;;;51.15;;
45676;SDS011;31390;51.186;6.830;2022-08-05T06:16:26;132.23;;;57.85;;
45676;SDS011;31390;51.186;6.830;2022-08-05T06:19:03;166.60;;;61.60;;
45676;SDS011;31390;51.186;6.830;2022-08-05T06:21:33;78.60;;;45.88;;
45676;SDS011;31390;51.186;6.830;2022-08-05T06:24:06;72.60;;;43.55;;
45676;SDS011;31390;51.186;6.830;2022-08-05T06:26:41;77.85;;;45.17;;
45676;SDS011;31390;51.186;6.830;2022-08-05T06:29:18;116.47;;;54.35;;
45676;SDS011;31390;51.186;6.830;2022-08-05T06:32:04;162.20;;;58.80;;
45676;SDS011;31390;51.186;6.830;2022-08-05T06:34:47;53.15;;;36.22;;
45676;SDS011;31390;51.186;6.830;2022-08-05T06:37:18;188.50;;;65.47;;
45676;SDS011;31390;51.186;6.830;2022-08-05T06:40:05;140.05;;;55.17;;
45676;SDS011;31390;51.186;6.830;2022-08-05T06:42:33;116.13;;;52.45;;
45676;SDS011;31390;51.186;6.830;2022-08-05T06:44:59;102.30;;;50.63;;
45676;SDS011;31390;51.186;6.830;2022-08-05T06:47:34;82.40;;;44.15;;
45676;SDS011;31390;51.186;6.830;2022-08-05T06:50:20;244.57;;;77.72;;
45676;SDS011;31390;51.186;6.830;2022-08-05T06:52:47;73.13;;;45.25;;
45676;SDS011;31390;51.186;6.830;2022-08-05T06:55:24;263.08;;;83.45;;
45676;SDS011;31390;51.186;6.830;2022-08-05T06:57:52;289.75;;;93.55;;
45676;SDS011;31390;51.186;6.830;2022-08-05T07:00:39;137.38;;;65.28;;
45676;SDS011;31390;51.186;6.830;2022-08-05T07:03:06;371.48;;;109.57;;
45676;SDS011;31390;51.186;6.830;2022-08-05T07:05:35;254.38;;;92.38;;
45676;SDS011;31390;51.186;6.830;2022-08-05T07:08:03;218.95;;;93.32;;
45676;SDS011;31390;51.186;6.830;2022-08-05T07:10:30;373.23;;;122.88;;
45676;SDS011;31390;51.186;6.830;2022-08-05T07:12:58;161.27;;;85.22;;
45676;SDS011;31390;51.186;6.830;2022-08-05T07:16:03;330.80;;;112.93;;
45676;SDS011;31390;51.186;6.830;2022-08-05T07:19:08;410.90;;;125.20;;
45676;SDS011;31390;51.186;6.830;2022-08-05T07:21:34;282.88;;;112.65;;
45676;SDS011;31390;51.186;6.830;2022-08-05T07:24:21;183.65;;;87.40;;
45676;SDS011;31390;51.186;6.830;2022-08-05T07:26:54;154.50;;;77.90;;
45676;SDS011;31390;51.186;6.830;2022-08-05T07:29:22;167.38;;;76.93;;
45676;SDS011;31390;51.186;6.830;2022-08-05T07:32:08;127.85;;;62.28;;
45676;SDS011;31390;51.186;6.830;2022-08-05T07:34:39;92.90;;;51.17;;
45676;SDS011;31390;51.186;6.830;2022-08-05T07:37:07;79.20;;;45.05;;
45676;SDS011;31390;51.186;6.830;2022-08-05T07:39:37;83.32;;;42.25;;
45676;SDS011;31390;51.186;6.830;2022-08-05T07:42:23;94.07;;;44.72;;
45676;SDS011;31390;51.186;6.830;2022-08-05T07:44:59;83.72;;;41.40;;
45676;SDS011;31390;51.186;6.830;2022-08-05T07:47:26;122.35;;;50.30;;
45676;SDS011;31390;51.186;6.830;2022-08-05T07:50:08;118.32;;;49.60;;
45676;SDS011;31390;51.186;6.830;2022-08-05T07:52:38;74.30;;;39.92;;
45676;SDS011;31390;51.186;6.830;2022-08-05T07:55:09;70.97;;;38.47;;
45676;SDS011;31390;51.186;6.830;2022-08-05T07:57:56;67.55;;;38.00;;
45676;SDS011;31390;51.186;6.830;2022-08-05T08:00:28;68.97;;;37.80;;
45676;SDS011;31390;51.186;6.830;2022-08-05T08:02:55;86.00;;;42.72;;
45676;SDS011;31390;51.186;6.830;2022-08-05T08:05:41;68.40;;;40.50;;
45676;SDS011;31390;51.186;6.830;2022-08-05T08:08:15;38.95;;;25.00;;
45676;SDS011;31390;51.186;6.830;2022-08-05T08:10:45;52.10;;;31.50;;
45676;SDS011;31390;51.186;6.830;2022-08-05T08:13:14;43.63;;;27.08;;
45676;SDS011;31390;51.186;6.830;2022-08-05T08:15:47;50.13;;;25.48;;
45676;SDS011;31390;51.186;6.830;2022-08-05T08:18:34;33.72;;;21.48;;
45676;SDS011;31390;51.186;6.830;2022-08-05T08:21:03;40.58;;;23.08;;
45676;SDS011;31390;51.186;6.830;2022-08-05T08:23:41;32.42;;;20.75;;
45676;SDS011;31390;51.186;6.830;2022-08-05T08:26:27;52.85;;;28.50;;
45676;SDS011;31390;51.186;6.830;2022-08-05T08:28:55;51.60;;;28.65;;
45676;SDS011;31390;51.186;6.830;2022-08-05T08:31:27;41.67;;;24.85;;
45676;SDS011;31390;51.186;6.830;2022-08-05T08:33:58;41.47;;;23.88;;
45676;SDS011;31390;51.186;6.830;2022-08-05T08:36:25;23.52;;;18.50;;
45676;SDS011;31390;51.186;6.830;2022-08-05T08:39:07;38.33;;;22.98;;
45676;SDS011;31390;51.186;6.830;2022-08-05T08:41:41;27.27;;;21.00;;
45676;SDS011;31390;51.186;6.830;2022-08-05T08:44:28;46.40;;;26.15;;
45676;SDS011;31390;51.186;6.830;2022-08-05T08:47:15;21.83;;;17.30;;
45676;SDS011;31390;51.186;6.830;2022-08-05T08:50:04;26.65;;;18.73;;
45676;SDS011;31390;51.186;6.830;2022-08-05T08:52:52;23.95;;;18.10;;
45676;SDS011;31390;51.186;6.830;2022-08-05T08:55:21;24.55;;;18.23;;
45676;SDS011;31390;51.186;6.830;2022-08-05T08:58:08;33.75;;;20.23;;
45676;SDS011;31390;51.186;6.830;2022-08-05T09:00:39;18.08;;;13.50;;
45676;SDS011;31390;51.186;6.830;2022-08-05T09:03:07;34.58;;;20.83;;
45676;SDS011;31390;51.186;6.830;2022-08-05T09:05:34;25.65;;;16.92;;
45676;SDS011;31390;51.186;6.830;2022-08-05T09:08:21;28.92;;;17.58;;
45676;SDS011;31390;51.186;6.830;2022-08-05T09:10:56;19.88;;;14.20;;
45676;SDS011;31390;51.186;6.830;2022-08-05T09:13:23;19.40;;;12.10;;
45676;SDS011;31390;51.186;6.830;2022-08-05T09:15:59;17.40;;;12.52;;
45676;SDS011;31390;51.186;6.830;2022-08-05T09:18:27;15.45;;;10.75;;
45676;SDS011;31390;51.186;6.830;2022-08-05T09:20:56;11.68;;;8.80;;
45676;SDS011;31390;51.186;6.830;2022-08-05T09:23:26;15.60;;;10.45;;
45676;SDS011;31390;51.186;6.830;2022-08-05T09:26:12;25.40;;;15.88;;
45676;SDS011;31390;51.186;6.830;2022-08-05T09:28:46;16.73;;;12.32;;
45676;SDS011;31390;51.186;6.830;2022-08-05T09:31:14;22.50;;;14.45;;
45676;SDS011;31390;51.186;6.830;2022-08-05T09:34:04;17.27;;;12.95;;
45676;SDS011;31390;51.186;6.830;2022-08-05T09:39:22;14.80;;;9.32;;
45676;SDS011;31390;51.186;6.830;2022-08-05T09:42:10;14.75;;;10.70;;
45676;SDS011;31390;51.186;6.830;2022-08-05T09:44:46;24.20;;;15.15;;
45676;SDS011;31390;51.186;6.830;2022-08-05T09:47:19;14.45;;;10.60;;
45676;SDS011;31390;51.186;6.830;2022-08-05T09:52:33;16.20;;;11.13;;
45676;SDS011;31390;51.186;6.830;2022-08-05T09:55:12;18.50;;;13.02;;
45676;SDS011;31390;51.186;6.830;2022-08-05T09:58:08;18.65;;;15.32;;
45676;SDS011;31390;51.186;6.830;2022-08-05T10:00:36;17.80;;;12.85;;
45676;SDS011;31390;51.186;6.830;2022-08-05T10:03:09;23.80;;;16.60;;
45676;SDS011;31390;51.186;6.830;2022-08-05T10:05:36;12.75;;;10.18;;
45676;SDS011;31390;51.186;6.830;2022-08-05T10:08:04;20.10;;;14.48;;
45676;SDS011;31390;51.186;6.830;2022-08-05T10:10:51;17.85;;;14.52;;
45676;SDS011;31390;51.186;6.830;2022-08-05T10:13:30;14.45;;;12.95;;
45676;SDS011;31390;51.186;6.830;2022-08-05T10:16:32;14.85;;;10.68;;
45676;SDS011;31390;51.186;6.830;2022-08-05T10:19:06;14.85;;;12.35;;
45676;SDS011;31390;51.186;6.830;2022-08-05T10:21:34;20.23;;;12.80;;
45676;SDS011;31390;51.186;6.830;2022-08-05T10:24:07;16.35;;;11.65;;
45676;SDS011;31390;51.186;6.830;2022-08-05T10:26:36;14.40;;;9.90;;
45676;SDS011;31390;51.186;6.830;2022-08-05T10:29:20;11.10;;;8.63;;
45676;SDS011;31390;51.186;6.830;2022-08-05T10:32:07;11.85;;;9.90;;
45676;SDS011;31390;51.186;6.830;2022-08-05T10:34:54;12.23;;;8.23;;
45676;SDS011;31390;51.186;6.830;2022-08-05T10:37:26;9.20;;;6.60;;
45676;SDS011;31390;51.186;6.830;2022-08-05T10:40:16;8.20;;;7.30;;
45676;SDS011;31390;51.186;6.830;2022-08-05T10:42:45;12.65;;;8.80;;
45676;SDS011;31390;51.186;6.830;2022-08-05T10:45:15;9.23;;;7.18;;
45676;SDS011;31390;51.186;6.830;2022-08-05T10:51:02;7.82;;;4.97;;
45676;SDS011;31390;51.186;6.830;2022-08-05T10:53:36;10.68;;;5.88;;
45676;SDS011;31390;51.186;6.830;2022-08-05T10:56:14;9.40;;;5.93;;
45676;SDS011;31390;51.186;6.830;2022-08-05T11:01:32;7.32;;;4.28;;
45676;SDS011;31390;51.186;6.830;2022-08-05T11:04:21;8.10;;;5.15;;
45676;SDS011;31390;51.186;6.830;2022-08-05T11:17:53;6.97;;;4.40;;
45676;SDS011;31390;51.186;6.830;2022-08-05T11:22:56;5.18;;;2.75;;
45676;SDS011;31390;51.186;6.830;2022-08-05T11:25:35;12.30;;;3.85;;
45676;SDS011;31390;51.186;6.830;2022-08-05T11:33:32;10.07;;;5.80;;
45676;SDS011;31390;51.186;6.830;2022-08-05T11:36:13;6.32;;;5.70;;
45676;SDS011;31390;51.186;6.830;2022-08-05T11:39:00;5.63;;;4.18;;
45676;SDS011;31390;51.186;6.830;2022-08-05T11:41:27;7.88;;;4.55;;
45676;SDS011;31390;51.186;6.830;2022-08-05T11:44:16;5.63;;;3.97;;
45676;SDS011;31390;51.186;6.830;2022-08-05T11:47:05;3.78;;;3.20;;
45676;SDS011;31390;51.186;6.830;2022-08-05T11:49:42;6.00;;;3.67;;
45676;SDS011;31390;51.186;6.830;2022-08-05T11:52:26;6.70;;;5.35;;
45676;SDS011;31390;51.186;6.830;2022-08-05T11:54:55;5.93;;;5.07;;
45676;SDS011;31390;51.186;6.830;2022-08-05T11:57:27;5.70;;;4.53;;
45676;SDS011;31390;51.186;6.830;2022-08-05T11:59:56;5.60;;;3.60;;
45676;SDS011;31390;51.186;6.830;2022-08-05T12:02:26;4.25;;;2.80;;
45676;SDS011;31390;51.186;6.830;2022-08-05T12:05:02;4.45;;;3.40;;
45676;SDS011;31390;51.186;6.830;2022-08-05T12:07:35;4.90;;;3.17;;
45676;SDS011;31390;51.186;6.830;2022-08-05T12:10:24;4.80;;;4.20;;
45676;SDS011;31390;51.186;6.830;2022-08-05T12:13:11;6.50;;;4.93;;
45676;SDS011;31390;51.186;6.830;2022-08-05T12:15:43;11.10;;;5.47;;
45676;SDS011;31390;51.186;6.830;2022-08-05T12:18:10;7.40;;;4.15;;
45676;SDS011;31390;51.186;6.830;2022-08-05T12:20:37;6.03;;;3.80;;
45676;SDS011;31390;51.186;6.830;2022-08-05T12:23:09;6.20;;;3.67;;
45676;SDS011;31390;51.186;6.830;2022-08-05T12:25:53;5.68;;;4.53;;
45676;SDS011;31390;51.186;6.830;2022-08-05T12:28:30;7.53;;;4.95;;
45676;SDS011;31390;51.186;6.830;2022-08-05T12:30:57;6.10;;;5.60;;
45676;SDS011;31390;51.186;6.830;2022-08-05T12:33:27;8.98;;;7.82;;
45676;SDS011;31390;51.186;6.830;2022-08-05T12:36:05;9.13;;;7.63;;
45676;SDS011;31390;51.186;6.830;2022-08-05T12:38:34;8.35;;;7.65;;
45676;SDS011;31390;51.186;6.830;2022-08-05T12:41:02;7.50;;;6.72;;
45676;SDS011;31390;51.186;6.830;2022-08-05T12:43:28;9.80;;;8.32;;
45676;SDS011;31390;51.186;6.830;2022-08-05T12:45:57;6.25;;;5.25;;
45676;SDS011;31390;51.186;6.830;2022-08-05T12:48:24;7.65;;;6.55;;
45676;SDS011;31390;51.186;6.830;2022-08-05T12:51:13;7.18;;;6.50;;
45676;SDS011;31390;51.186;6.830;2022-08-05T12:54:03;8.88;;;6.90;;
45676;SDS011;31390;51.186;6.830;2022-08-05T12:56:42;6.75;;;5.10;;
45676;SDS011;31390;51.186;6.830;2022-08-05T12:59:17;5.65;;;5.05;;
45676;SDS011;31390;51.186;6.830;2022-08-05T13:02:06;5.18;;;4.70;;
45676;SDS011;31390;51.186;6.830;2022-08-05T13:04:37;6.80;;;6.05;;
45676;SDS011;31390;51.186;6.830;2022-08-05T13:07:08;8.07;;;7.28;;
45676;SDS011;31390;51.186;6.830;2022-08-05T13:09:47;8.27;;;7.65;;
45676;SDS011;31390;51.186;6.830;2022-08-05T13:12:25;6.95;;;6.35;;
45676;SDS011;31390;51.186;6.830;2022-08-05T13:14:56;6.25;;;5.53;;
45676;SDS011;31390;51.186;6.830;2022-08-05T13:17:31;5.70;;;5.10;;
45676;SDS011;31390;51.186;6.830;2022-08-05T13:20:14;6.88;;;6.18;;
45676;SDS011;31390;51.186;6.830;2022-08-05T13:22:49;5.47;;;4.45;;
45676;SDS011;31390;51.186;6.830;2022-08-05T13:25:17;5.90;;;5.05;;
45676;SDS011;31390;51.186;6.830;2022-08-05T13:28:04;5.72;;;5.13;;
45676;SDS011;31390;51.186;6.830;2022-08-05T13:30:35;5.63;;;3.70;;
45676;SDS011;31390;51.186;6.830;2022-08-05T13:33:04;5.43;;;3.95;;
45676;SDS011;31390;51.186;6.830;2022-08-05T13:35:33;8.60;;;3.88;;
45676;SDS011;31390;51.186;6.830;2022-08-05T13:38:18;2.88;;;2.28;;
45676;SDS011;31390;51.186;6.830;2022-08-05T13:40:57;2.78;;;1.85;;
45676;SDS011;31390;51.186;6.830;2022-08-05T13:43:23;3.75;;;2.13;;
45676;SDS011;31390;51.186;6.830;2022-08-05T13:46:10;2.95;;;1.90;;
45676;SDS011;31390;51.186;6.830;2022-08-05T13:48:37;2.67;;;1.88;;
45676;SDS011;31390;51.186;6.830;2022-08-05T13:51:25;2.55;;;1.67;;
45676;SDS011;31390;51.186;6.830;2022-08-05T13:53:54;4.80;;;1.90;;
45676;SDS011;31390;51.186;6.830;2022-08-05T13:56:23;4.07;;;1.88;;
45676;SDS011;31390;51.186;6.830;2022-08-05T13:58:50;3.20;;;1.77;;
45676;SDS011;31390;51.186;6.830;2022-08-05T14:01:19;3.92;;;1.88;;
45676;SDS011;31390;51.186;6.830;2022-08-05T14:04:01;5.13;;;2.10;;
45676;SDS011;31390;51.186;6.830;2022-08-05T14:06:51;1.52;;;1.30;;
45676;SDS011;31390;51.186;6.830;2022-08-05T14:09:37;2.60;;;1.52;;
45676;SDS011;31390;51.186;6.830;2022-08-05T14:12:11;2.83;;;1.52;;
45676;SDS011;31390;51.186;6.830;2022-08-05T14:14:44;3.90;;;1.60;;
45676;SDS011;31390;51.186;6.830;2022-08-05T14:17:17;3.35;;;2.03;;
45676;SDS011;31390;51.186;6.830;2022-08-05T14:19:45;3.40;;;1.90;;
45676;SDS011;31390;51.186;6.830;2022-08-05T14:22:24;2.80;;;1.65;;
45676;SDS011;31390;51.186;6.830;2022-08-05T14:24:55;3.80;;;1.90;;
45676;SDS011;31390;51.186;6.830;2022-08-05T14:27:22;3.25;;;1.77;;
45676;SDS011;31390;51.186;6.830;2022-08-05T14:29:53;3.60;;;2.00;;
45676;SDS011;31390;51.186;6.830;2022-08-05T14:32:21;4.45;;;2.33;;
45676;SDS011;31390;51.186;6.830;2022-08-05T14:34:53;3.28;;;2.35;;
45676;SDS011;31390;51.186;6.830;2022-08-05T14:37:24;3.55;;;2.00;;
45676;SDS011;31390;51.186;6.830;2022-08-05T14:40:12;2.03;;;1.50;;
45676;SDS011;31390;51.186;6.830;2022-08-05T14:42:42;4.65;;;2.10;;
45676;SDS011;31390;51.186;6.830;2022-08-05T14:45:09;4.55;;;1.70;;
45676;SDS011;31390;51.186;6.830;2022-08-05T14:47:37;3.20;;;1.58;;
45676;SDS011;31390;51.186;6.830;2022-08-05T14:50:24;2.47;;;1.83;;
45676;SDS011;31390;51.186;6.830;2022-08-05T14:52:51;3.15;;;1.60;;
45676;SDS011;31390;51.186;6.830;2022-08-05T14:55:25;2.00;;;1.20;;
45676;SDS011;31390;51.186;6.830;2022-08-05T14:58:04;5.05;;;1.65;;
45676;SDS011;31390;51.186;6.830;2022-08-05T15:00:37;2.45;;;1.30;;
45676;SDS011;31390;51.186;6.830;2022-08-05T15:03:25;3.83;;;1.65;;
45676;SDS011;31390;51.186;6.830;2022-08-05T15:05:52;2.72;;;1.73;;
45676;SDS011;31390;51.186;6.830;2022-08-05T15:08:39;2.03;;;1.50;;
45676;SDS011;31390;51.186;6.830;2022-08-05T15:11:26;2.60;;;1.40;;
45676;SDS011;31390;51.186;6.830;2022-08-05T15:14:15;3.85;;;1.90;;
45676;SDS011;31390;51.186;6.830;2022-08-05T15:16:59;2.17;;;1.70;;
45676;SDS011;31390;51.186;6.830;2022-08-05T15:19:26;1.98;;;1.33;;
45676;SDS011;31390;51.186;6.830;2022-08-05T15:21:56;2.47;;;1.33;;
45676;SDS011;31390;51.186;6.830;2022-08-05T15:24:26;2.35;;;1.20;;
45676;SDS011;31390;51.186;6.830;2022-08-05T15:26:52;3.78;;;1.20;;
45676;SDS011;31390;51.186;6.830;2022-08-05T15:29:22;2.03;;;1.40;;
45676;SDS011;31390;51.186;6.830;2022-08-05T15:31:56;2.40;;;1.30;;
45676;SDS011;31390;51.186;6.830;2022-08-05T15:34:27;2.65;;;1.20;;
45676;SDS011;31390;51.186;6.830;2022-08-05T15:37:01;2.47;;;1.20;;
45676;SDS011;31390;51.186;6.830;2022-08-05T15:39:39;2.60;;;1.00;;
45676;SDS011;31390;51.186;6.830;2022-08-05T15:42:26;1.98;;;0.93;;
45676;SDS011;31390;51.186;6.830;2022-08-05T15:45:16;2.78;;;1.00;;
45676;SDS011;31390;51.186;6.830;2022-08-05T15:47:52;3.78;;;0.88;;
45676;SDS011;31390;51.186;6.830;2022-08-05T15:50:22;2.60;;;0.90;;
45676;SDS011;31390;51.186;6.830;2022-08-05T15:52:52;3.70;;;0.90;;
45676;SDS011;31390;51.186;6.830;2022-08-05T15:55:21;2.13;;;0.90;;
45676;SDS011;31390;51.186;6.830;2022-08-05T15:58:09;2.75;;;1.00;;
45676;SDS011;31390;51.186;6.830;2022-08-05T16:00:42;3.53;;;1.20;;
45676;SDS011;31390;51.186;6.830;2022-08-05T16:03:28;1.55;;;0.80;;
45676;SDS011;31390;51.186;6.830;2022-08-05T16:05:59;3.13;;;0.88;;
45676;SDS011;31390;51.186;6.830;2022-08-05T16:08:25;3.15;;;0.70;;